Time;durP1;ratioP1;P1;durP2;ratioP2;P2;SDS_P1;SDS_P2;PMS_P1;PMS_P2;Temp;Humidity;BMP_temperature;BMP_pressure;BME280_temperature;BME280_humidity;BME280_pressure;Samples;Min_cycle;Max_cycle;Signal;HPM_P1;HPM_P2
2024/03/23 00:00:27;;;;;;;19.73;7.00;;;9.20;99.90;;;;;;5032014;28;20428;-86
2024/03/23 00:02:53;;;;;;;27.77;7.35;;;9.20;99.90;;;;;;5030633;28;20120;-86
2024/03/23 00:05:20;;;;;;;28.45;7.90;;;9.20;99.90;;;;;;5020867;28;20026;-85
2024/03/23 00:07:46;;;;;;;25.48;7.47;;;9.20;99.90;;;;;;5016655;28;20025;-85
2024/03/23 00:10:13;;;;;;;27.33;7.50;;;9.20;99.90;;;;;;5046398;28;20025;-86
2024/03/23 00:12:39;;;;;;;24.35;6.55;;;9.10;99.90;;;;;;5032295;28;20036;-85
2024/03/23 00:15:06;;;;;;;26.60;6.82;;;9.10;99.90;;;;;;5031580;28;20033;-85
2024/03/23 00:17:32;;;;;;;23.30;6.60;;;9.10;99.90;;;;;;5036708;28;20021;-86
2024/03/23 00:19:59;;;;;;;33.72;8.20;;;9.10;99.90;;;;;;5031386;28;20424;-86
2024/03/23 00:22:25;;;;;;;32.10;7.25;;;9.00;99.90;;;;;;5032299;28;20028;-86
2024/03/23 00:24:51;;;;;;;24.27;6.35;;;9.00;99.90;;;;;;5022261;28;20022;-86
2024/03/23 00:27:19;;;;;;;20.35;5.93;;;9.00;99.90;;;;;;5031009;28;20037;-86
2024/03/23 00:29:45;;;;;;;27.65;6.90;;;9.00;99.90;;;;;;5031794;28;20056;-86
2024/03/23 00:32:12;;;;;;;14.45;5.85;;;9.00;99.90;;;;;;5031807;28;20026;-86
2024/03/23 00:34:38;;;;;;;27.50;6.43;;;9.00;99.90;;;;;;5031251;28;20389;-86
2024/03/23 00:37:04;;;;;;;19.85;6.25;;;9.00;99.90;;;;;;5032097;28;20025;-86
2024/03/23 00:39:31;;;;;;;22.95;6.22;;;9.00;99.90;;;;;;5032124;28;20033;-86
2024/03/23 00:41:58;;;;;;;20.42;6.10;;;9.00;99.90;;;;;;5031153;28;20099;-86
2024/03/23 00:44:25;;;;;;;23.13;6.20;;;9.00;99.90;;;;;;5027481;28;20038;-86
2024/03/23 00:46:51;;;;;;;20.92;6.25;;;9.10;99.90;;;;;;5030700;28;20030;-86
2024/03/23 00:49:18;;;;;;;20.05;5.25;;;9.00;99.90;;;;;;5030388;28;20037;-87
2024/03/23 00:51:44;;;;;;;16.85;6.50;;;9.00;99.90;;;;;;5032228;28;20048;-86
2024/03/23 00:54:10;;;;;;;16.30;5.35;;;9.00;99.90;;;;;;5031962;28;20030;-87
2024/03/23 00:56:35;;;;;;;17.05;4.38;;;9.10;99.90;;;;;;5051822;28;20048;-87
2024/03/23 00:59:01;;;;;;;18.35;5.35;;;9.10;99.90;;;;;;5052188;28;20531;-87
2024/03/23 01:01:26;;;;;;;17.42;4.70;;;9.10;99.90;;;;;;5034286;28;20458;-86
2024/03/23 01:03:52;;;;;;;22.02;4.82;;;9.40;99.90;;;;;;5011306;28;20076;-87
2024/03/23 01:06:17;;;;;;;21.60;4.32;;;9.10;99.90;;;;;;5017611;28;20076;-86
2024/03/23 01:08:43;;;;;;;12.32;3.88;;;9.10;99.90;;;;;;5029677;28;20037;-86
2024/03/23 01:11:08;;;;;;;17.38;4.18;;;9.00;99.90;;;;;;5030628;28;20087;-85
2024/03/23 01:13:34;;;;;;;18.85;4.15;;;9.00;99.90;;;;;;5031323;28;20018;-85
2024/03/23 01:15:59;;;;;;;19.17;5.10;;;9.00;99.90;;;;;;5032772;28;20112;-86
2024/03/23 01:18:26;;;;;;;15.50;4.13;;;9.10;99.90;;;;;;5035285;28;20185;-86
2024/03/23 01:20:52;;;;;;;15.95;4.00;;;9.00;99.90;;;;;;5035729;28;20104;-86
2024/03/23 01:23:17;;;;;;;12.00;3.58;;;9.00;99.90;;;;;;5035220;28;20046;-87
2024/03/23 01:25:43;;;;;;;13.73;3.67;;;8.90;99.90;;;;;;5033529;28;20084;-85
2024/03/23 01:28:09;;;;;;;14.40;3.15;;;8.90;99.90;;;;;;5035231;28;20056;-87
2024/03/23 01:30:35;;;;;;;9.75;3.00;;;8.90;99.90;;;;;;5024529;28;20053;-86
2024/03/23 01:33:02;;;;;;;20.75;4.38;;;8.90;99.90;;;;;;5035200;28;20030;-86
2024/03/23 01:35:28;;;;;;;13.73;3.80;;;8.90;99.90;;;;;;5036122;28;20030;-86
2024/03/23 01:37:53;;;;;;;11.30;3.00;;;8.90;99.90;;;;;;5036385;28;20385;-86
2024/03/23 01:40:19;;;;;;;16.23;3.50;;;8.90;99.90;;;;;;5039602;28;20116;-92
2024/03/23 01:42:58;;;;;;;13.40;2.90;;;8.80;99.90;;;;;;5036717;28;20085;-86
2024/03/23 01:45:24;;;;;;;15.43;3.88;;;8.80;99.90;;;;;;5030409;28;20036;-84
2024/03/23 01:47:52;;;;;;;12.75;3.45;;;8.80;99.90;;;;;;5034996;28;20060;-85
2024/03/23 01:50:17;;;;;;;12.68;3.10;;;8.70;99.90;;;;;;5017135;28;20502;-86
2024/03/23 01:52:44;;;;;;;12.80;3.45;;;8.60;99.90;;;;;;5015056;28;20104;-85
2024/03/23 01:55:09;;;;;;;9.95;3.60;;;8.60;99.90;;;;;;5034151;28;20033;-85
2024/03/23 01:57:35;;;;;;;13.65;4.35;;;8.60;99.90;;;;;;5030667;28;20025;-84
2024/03/23 02:00:01;;;;;;;13.23;3.88;;;8.50;99.90;;;;;;5014384;28;20026;-85
2024/03/23 02:02:26;;;;;;;14.65;3.63;;;8.50;99.90;;;;;;5015330;28;20099;-85
2024/03/23 02:04:52;;;;;;;13.88;4.07;;;8.50;99.90;;;;;;5014714;28;20030;-85
2024/03/23 02:07:17;;;;;;;12.43;3.25;;;8.40;99.90;;;;;;5019420;28;20053;-84
2024/03/23 02:09:43;;;;;;;15.23;3.70;;;8.40;99.90;;;;;;5014550;28;20037;-85
2024/03/23 02:12:10;;;;;;;10.50;3.10;;;8.40;99.90;;;;;;5031132;28;20461;-85
2024/03/23 02:14:35;;;;;;;19.92;4.47;;;8.30;99.90;;;;;;5046746;28;20020;-85
2024/03/23 02:17:01;;;;;;;15.57;3.40;;;8.30;99.90;;;;;;5045684;28;20109;-85
2024/03/23 02:19:26;;;;;;;14.82;3.63;;;8.30;99.90;;;;;;5033821;28;20108;-85
2024/03/23 02:21:52;;;;;;;20.85;3.58;;;8.30;99.90;;;;;;5034262;28;20061;-84
2024/03/23 02:24:17;;;;;;;11.50;2.80;;;8.20;99.90;;;;;;5034067;28;20029;-85
2024/03/23 02:26:43;;;;;;;13.40;3.58;;;8.20;99.90;;;;;;5044514;28;20084;-84
2024/03/23 02:29:09;;;;;;;15.60;4.22;;;8.20;99.90;;;;;;5053717;28;20036;-85
2024/03/23 02:31:35;;;;;;;15.90;4.10;;;8.20;99.90;;;;;;5054051;28;20048;-85
2024/03/23 02:34:01;;;;;;;10.95;3.15;;;8.30;99.90;;;;;;5049867;28;20067;-86
2024/03/23 02:36:26;;;;;;;15.52;3.90;;;8.20;99.90;;;;;;5032148;28;20531;-85
2024/03/23 02:38:52;;;;;;;13.52;3.50;;;8.20;99.90;;;;;;5033131;28;20413;-85
2024/03/23 02:41:22;;;;;;;20.98;4.05;;;8.30;99.90;;;;;;5032735;28;20033;-85
2024/03/23 02:43:51;;;;;;;11.75;4.65;;;8.20;99.90;;;;;;5032760;28;20041;-85
2024/03/23 02:46:17;;;;;;;11.20;3.00;;;8.20;99.90;;;;;;5033513;28;20034;-85
2024/03/23 02:48:43;;;;;;;15.30;3.20;;;8.20;99.90;;;;;;5033273;28;20029;-85
2024/03/23 02:51:08;;;;;;;10.18;3.97;;;8.20;99.90;;;;;;5033706;28;20481;-85
2024/03/23 02:53:34;;;;;;;15.25;3.67;;;8.10;99.90;;;;;;5033661;28;20044;-85
2024/03/23 02:55:59;;;;;;;18.75;3.63;;;8.10;99.90;;;;;;5026475;28;20551;-85
2024/03/23 02:58:25;;;;;;;19.42;4.05;;;8.10;99.90;;;;;;5031962;28;20032;-86
2024/03/23 03:00:51;;;;;;;12.48;3.63;;;8.10;99.90;;;;;;5013177;28;20117;-85
2024/03/23 03:03:16;;;;;;;20.30;3.67;;;8.00;99.90;;;;;;5013634;28;20037;-86
2024/03/23 03:05:43;;;;;;;12.82;3.45;;;8.00;99.90;;;;;;5013942;28;20092;-85
2024/03/23 03:08:08;;;;;;;17.60;3.55;;;8.00;99.90;;;;;;5030673;28;20026;-85
2024/03/23 03:10:36;;;;;;;12.57;2.75;;;8.00;99.90;;;;;;5032936;28;20035;-86
2024/03/23 03:13:02;;;;;;;14.68;3.33;;;8.00;99.90;;;;;;5033627;28;20083;-86
2024/03/23 03:15:27;;;;;;;10.13;3.25;;;8.00;99.90;;;;;;5033410;28;20109;-86
2024/03/23 03:17:53;;;;;;;20.42;3.72;;;8.00;99.90;;;;;;5028155;28;20033;-86
2024/03/23 03:20:18;;;;;;;16.77;3.53;;;7.90;99.90;;;;;;5033892;28;20025;-86
2024/03/23 03:22:44;;;;;;;15.90;3.58;;;7.90;99.90;;;;;;5033224;28;20025;-87
2024/03/23 03:25:09;;;;;;;19.63;3.80;;;7.90;99.90;;;;;;5035026;28;20025;-87
2024/03/23 03:27:35;;;;;;;15.30;3.10;;;7.90;99.90;;;;;;5037491;28;20025;-88
2024/03/23 03:30:02;;;;;;;13.63;2.75;;;7.80;99.90;;;;;;5033402;28;20045;-86
2024/03/23 03:32:29;;;;;;;13.00;2.70;;;7.70;99.90;;;;;;5034026;28;20024;-87
2024/03/23 03:34:54;;;;;;;14.05;3.25;;;7.70;99.90;;;;;;5033157;28;20056;-85
2024/03/23 03:37:20;;;;;;;14.40;2.50;;;7.70;99.90;;;;;;5032767;28;20026;-86
2024/03/23 03:39:45;;;;;;;16.45;2.65;;;7.70;99.90;;;;;;5017685;28;20034;-86
2024/03/23 03:42:11;;;;;;;10.63;2.53;;;7.70;99.90;;;;;;5016493;28;20049;-85
2024/03/23 03:44:37;;;;;;;21.30;3.00;;;7.70;99.90;;;;;;5032447;28;20362;-85
2024/03/23 03:47:02;;;;;;;16.38;2.75;;;7.70;99.90;;;;;;5031970;28;20355;-86
2024/03/23 03:49:28;;;;;;;18.73;3.00;;;7.50;99.90;;;;;;5033096;28;20121;-86
2024/03/23 03:51:53;;;;;;;22.20;2.38;;;7.70;99.90;;;;;;5032300;28;20021;-85
2024/03/23 03:54:19;;;;;;;16.90;2.67;;;7.70;99.90;;;;;;5039724;28;20036;-86
2024/03/23 03:56:44;;;;;;;17.65;2.78;;;7.70;99.90;;;;;;5052257;28;20373;-85
2024/03/23 03:59:10;;;;;;;15.50;2.47;;;7.60;99.90;;;;;;5045489;28;20112;-86
2024/03/23 04:01:35;;;;;;;12.25;2.80;;;7.60;99.90;;;;;;5030290;28;20056;-86
2024/03/23 04:04:01;;;;;;;19.30;2.75;;;7.60;99.90;;;;;;5031832;28;20029;-86
2024/03/23 04:06:27;;;;;;;24.13;3.15;;;7.60;99.90;;;;;;5031337;28;20044;-85
2024/03/23 04:08:52;;;;;;;16.20;4.07;;;7.60;99.90;;;;;;5032028;28;20472;-85
2024/03/23 04:11:18;;;;;;;15.18;3.55;;;7.60;99.90;;;;;;5052458;28;20021;-86
2024/03/23 04:13:43;;;;;;;12.73;2.83;;;7.60;99.90;;;;;;5052324;28;20032;-85
2024/03/23 04:16:09;;;;;;;8.45;1.75;;;7.70;99.90;;;;;;5052524;28;20032;-86
2024/03/23 04:18:35;;;;;;;9.13;3.05;;;7.70;99.90;;;;;;5052501;28;20372;-86
2024/03/23 04:21:00;;;;;;;19.13;3.15;;;7.70;99.90;;;;;;5039946;28;20028;-86
2024/03/23 04:23:26;;;;;;;10.82;2.55;;;7.70;99.90;;;;;;5031595;28;20463;-86
2024/03/23 04:25:53;;;;;;;5.90;1.70;;;7.70;99.90;;;;;;5032066;28;20036;-85
2024/03/23 04:28:19;;;;;;;22.73;2.83;;;7.70;99.90;;;;;;5032140;28;20120;-86
2024/03/23 04:30:44;;;;;;;18.65;3.05;;;7.70;99.90;;;;;;5031750;28;20108;-86
2024/03/23 04:33:10;;;;;;;12.73;3.25;;;7.70;99.90;;;;;;5032051;28;20021;-89
2024/03/23 04:35:35;;;;;;;10.98;2.38;;;7.70;99.90;;;;;;5028679;28;20021;-87
2024/03/23 04:38:01;;;;;;;18.15;3.05;;;7.60;99.90;;;;;;5033668;28;20041;-86
2024/03/23 04:40:27;;;;;;;8.27;1.63;;;7.60;99.90;;;;;;5051306;28;20029;-86
2024/03/23 04:42:52;;;;;;;16.75;1.95;;;7.70;99.90;;;;;;5018514;28;20056;-87
2024/03/23 04:45:18;;;;;;;7.70;2.38;;;7.60;99.90;;;;;;5012251;28;20112;-85
2024/03/23 04:47:44;;;;;;;16.15;2.50;;;7.60;99.90;;;;;;5025596;28;20025;-85
2024/03/23 04:50:10;;;;;;;16.63;3.10;;;7.60;99.90;;;;;;5038893;28;20045;-85
2024/03/23 04:52:36;;;;;;;14.20;2.33;;;7.50;99.90;;;;;;5032032;28;20025;-86
2024/03/23 04:55:02;;;;;;;12.88;2.08;;;7.50;99.90;;;;;;5031260;28;20076;-86
2024/03/23 04:57:27;;;;;;;8.82;2.20;;;7.50;99.90;;;;;;5031738;28;20109;-86
2024/03/23 04:59:53;;;;;;;12.73;2.20;;;7.40;99.90;;;;;;5032073;28;20079;-86
2024/03/23 05:02:18;;;;;;;8.65;1.50;;;7.30;99.90;;;;;;5031568;28;20484;-86
2024/03/23 05:04:44;;;;;;;6.93;1.70;;;7.40;99.90;;;;;;5026812;28;20342;-86
2024/03/23 05:07:09;;;;;;;12.00;2.25;;;7.40;99.90;;;;;;5030753;28;20116;-86
2024/03/23 05:09:35;;;;;;;18.52;2.60;;;7.40;99.90;;;;;;5047410;28;20068;-86
2024/03/23 05:12:00;;;;;;;15.32;2.67;;;7.40;99.90;;;;;;5051459;28;20075;-85
2024/03/23 05:14:26;;;;;;;13.73;2.42;;;7.30;99.90;;;;;;5053262;28;20036;-85
2024/03/23 05:16:55;;;;;;;15.07;2.47;;;7.30;99.90;;;;;;5041290;28;20545;-86
2024/03/23 05:19:22;;;;;;;10.77;2.20;;;7.30;99.90;;;;;;5031969;28;20037;-85
2024/03/23 05:21:47;;;;;;;10.77;2.33;;;7.30;99.90;;;;;;5031773;28;20021;-86
2024/03/23 05:24:13;;;;;;;11.05;2.45;;;7.30;99.90;;;;;;5030026;28;20063;-86
2024/03/23 05:26:38;;;;;;;18.63;2.35;;;7.30;99.90;;;;;;5029148;28;20040;-85
2024/03/23 05:29:04;;;;;;;15.23;2.83;;;7.40;99.90;;;;;;5023657;28;20037;-86
2024/03/23 05:31:32;;;;;;;14.05;2.42;;;7.40;99.90;;;;;;5011783;28;20096;-84
2024/03/23 05:33:58;;;;;;;16.73;3.00;;;7.50;99.90;;;;;;5012547;28;20041;-87
2024/03/23 05:36:26;;;;;;;10.13;2.30;;;7.50;99.90;;;;;;5050099;28;20021;-85
2024/03/23 05:38:51;;;;;;;16.30;2.55;;;7.60;99.90;;;;;;5050899;28;20060;-85
2024/03/23 05:41:17;;;;;;;14.45;3.00;;;7.60;99.90;;;;;;5051675;28;20110;-86
2024/03/23 05:43:42;;;;;;;21.63;3.50;;;7.50;99.90;;;;;;5045242;28;20053;-85
2024/03/23 05:46:08;;;;;;;13.55;3.22;;;7.50;99.90;;;;;;5032326;28;20030;-84
2024/03/23 05:48:34;;;;;;;15.75;3.15;;;7.50;99.90;;;;;;5026875;28;20040;-84
2024/03/23 05:51:00;;;;;;;13.65;2.83;;;7.50;99.90;;;;;;5020539;28;20034;-84
2024/03/23 05:53:25;;;;;;;13.75;2.50;;;7.50;99.90;;;;;;5016404;28;20030;-84
2024/03/23 05:55:53;;;;;;;10.70;2.67;;;7.60;99.90;;;;;;5018931;28;20584;-83
2024/03/23 05:58:20;;;;;;;13.48;2.58;;;7.60;99.90;;;;;;5016504;28;20436;-84
2024/03/23 06:00:46;;;;;;;12.82;2.72;;;7.50;99.90;;;;;;5013883;28;20057;-85
2024/03/23 06:03:11;;;;;;;12.25;2.60;;;7.60;99.90;;;;;;5020021;28;20054;-85
2024/03/23 06:05:37;;;;;;;16.15;3.35;;;7.50;99.90;;;;;;5021402;28;20040;-84
2024/03/23 06:08:04;;;;;;;12.32;2.63;;;7.50;99.90;;;;;;5015332;28;20033;-85
2024/03/23 06:10:29;;;;;;;12.30;2.63;;;7.50;99.90;;;;;;5023337;28;20113;-84
2024/03/23 06:12:55;;;;;;;12.02;2.92;;;7.50;99.90;;;;;;5017636;28;20113;-85
2024/03/23 06:15:22;;;;;;;9.00;2.63;;;7.50;99.90;;;;;;5020443;28;20375;-84
2024/03/23 06:17:48;;;;;;;13.15;3.10;;;7.50;99.90;;;;;;5019446;28;20584;-84
2024/03/23 06:20:14;;;;;;;16.83;2.92;;;7.50;99.90;;;;;;5023787;28;20112;-84
2024/03/23 06:22:39;;;;;;;11.50;3.10;;;7.50;99.90;;;;;;5019513;28;20161;-84
2024/03/23 06:25:06;;;;;;;13.93;2.78;;;7.50;99.90;;;;;;5026870;28;20477;-85
2024/03/23 06:27:32;;;;;;;14.43;3.05;;;7.50;99.90;;;;;;5028716;28;20034;-83
2024/03/23 06:29:59;;;;;;;10.68;3.00;;;7.50;99.90;;;;;;5021295;28;20102;-85
2024/03/23 06:32:24;;;;;;;12.75;2.78;;;7.50;99.90;;;;;;5021002;28;20033;-84
2024/03/23 06:34:50;;;;;;;15.15;2.92;;;7.50;99.90;;;;;;5022899;28;20033;-85
2024/03/23 06:37:16;;;;;;;22.98;3.33;;;7.50;99.90;;;;;;5029700;28;20017;-85
2024/03/23 06:39:41;;;;;;;11.10;2.78;;;7.50;99.90;;;;;;5026096;28;20032;-85
2024/03/23 06:42:07;;;;;;;18.45;2.80;;;7.50;99.90;;;;;;5053355;28;20508;-85
2024/03/23 06:44:33;;;;;;;13.60;3.20;;;7.50;99.90;;;;;;5053899;28;20048;-86
2024/03/23 06:46:59;;;;;;;22.73;3.42;;;7.50;99.90;;;;;;5052638;28;20017;-85
2024/03/23 06:49:24;;;;;;;22.08;2.97;;;7.50;99.90;;;;;;5053901;28;20112;-86
2024/03/23 06:51:50;;;;;;;10.38;2.63;;;7.50;99.90;;;;;;5053958;28;20021;-86
2024/03/23 06:54:19;;;;;;;15.95;3.33;;;7.60;99.90;;;;;;5046801;28;20059;-85
2024/03/23 06:56:45;;;;;;;10.40;2.88;;;7.60;99.90;;;;;;5014606;28;20038;-85
2024/03/23 06:59:10;;;;;;;12.35;3.22;;;7.60;99.90;;;;;;5016003;28;20452;-84
2024/03/23 07:01:36;;;;;;;26.65;3.85;;;7.70;99.90;;;;;;5013328;28;20026;-86
2024/03/23 07:04:03;;;;;;;15.65;2.58;;;7.70;99.90;;;;;;5045930;28;20111;-86
2024/03/23 07:06:29;;;;;;;23.00;3.10;;;7.70;99.90;;;;;;5054239;28;20029;-86
2024/03/23 07:08:55;;;;;;;10.88;2.60;;;7.70;99.90;;;;;;5045094;28;20091;-85
2024/03/23 07:11:24;;;;;;;17.23;2.97;;;7.70;99.90;;;;;;5018512;28;20041;-86
2024/03/23 07:13:50;;;;;;;11.43;2.83;;;7.70;99.90;;;;;;5012837;28;20124;-85
2024/03/23 07:16:16;;;;;;;11.23;3.10;;;7.70;99.90;;;;;;5014236;28;20022;-88
2024/03/23 07:18:42;;;;;;;19.15;2.63;;;7.80;99.90;;;;;;5015033;28;20410;-86
2024/03/23 07:21:08;;;;;;;8.38;2.97;;;7.80;99.90;;;;;;5013013;28;20030;-83
2024/03/23 07:23:34;;;;;;;11.80;2.05;;;7.80;99.90;;;;;;5012546;28;20030;-84
2024/03/23 07:26:04;;;;;;;18.33;3.28;;;7.80;99.90;;;;;;5026777;28;20495;-85
2024/03/23 07:28:34;;;;;;;15.55;2.95;;;7.90;99.90;;;;;;5013915;28;20037;-93
2024/03/23 07:31:14;;;;;;;13.13;2.73;;;8.00;99.90;;;;;;5013412;28;20033;-85
2024/03/23 07:33:48;;;;;;;17.95;2.88;;;7.90;99.90;;;;;;5013128;28;20046;-85
2024/03/23 07:36:14;;;;;;;9.65;2.35;;;7.90;99.90;;;;;;5014955;28;20099;-84
2024/03/23 07:38:44;;;;;;;13.07;2.83;;;7.90;99.90;;;;;;5021825;28;20553;-84
2024/03/23 07:41:13;;;;;;;15.98;3.45;;;8.00;99.90;;;;;;5018774;28;20034;-84
2024/03/23 07:43:40;;;;;;;10.98;2.35;;;8.00;99.90;;;;;;5010443;28;20132;-85
2024/03/23 07:46:06;;;;;;;14.20;2.30;;;8.00;99.90;;;;;;5011066;28;20034;-83
2024/03/23 07:48:32;;;;;;;27.10;2.95;;;8.00;99.90;;;;;;5010802;28;20374;-85
2024/03/23 07:51:03;;;;;;;11.77;2.10;;;8.00;99.90;;;;;;5010428;28;20156;-84
2024/03/23 07:53:28;;;;;;;;;;;8.00;99.90;;;;;;5011974;28;20033;-85
2024/03/23 07:55:58;;;;;;;11.80;2.28;;;8.00;99.90;;;;;;5011159;28;19928;-85
2024/03/23 07:58:24;;;;;;;14.03;2.77;;;8.00;99.90;;;;;;5014591;28;20385;-84
2024/03/23 08:00:50;;;;;;;14.38;2.85;;;8.10;99.90;;;;;;5019249;28;20029;-85
2024/03/23 08:03:16;;;;;;;11.00;2.10;;;8.00;99.90;;;;;;5031964;28;20116;-85
2024/03/23 08:05:41;;;;;;;13.57;2.72;;;8.10;99.90;;;;;;5031934;28;20029;-85
2024/03/23 08:08:07;;;;;;;17.90;3.75;;;8.00;99.90;;;;;;5031507;28;20045;-84
2024/03/23 08:10:32;;;;;;;12.18;2.47;;;8.10;99.90;;;;;;5029507;28;20080;-85
2024/03/23 08:12:58;;;;;;;18.42;2.50;;;8.10;99.90;;;;;;5012658;28;20022;-85
2024/03/23 08:15:23;;;;;;;13.48;2.20;;;8.00;99.90;;;;;;5012539;28;20033;-84
2024/03/23 08:17:50;;;;;;;12.10;2.42;;;8.00;99.90;;;;;;5012761;28;20462;-85
2024/03/23 08:20:15;;;;;;;12.93;2.25;;;8.00;99.90;;;;;;5012469;28;20116;-85
2024/03/23 08:22:41;;;;;;;11.68;1.95;;;8.00;99.90;;;;;;5018952;28;20113;-84
2024/03/23 08:25:06;;;;;;;14.23;3.13;;;8.10;99.90;;;;;;5029441;28;20021;-83
2024/03/23 08:27:32;;;;;;;14.70;2.28;;;8.00;99.90;;;;;;5032050;28;20080;-84
2024/03/23 08:29:58;;;;;;;16.33;3.13;;;8.00;99.90;;;;;;5031513;28;20116;-84
2024/03/23 08:32:24;;;;;;;6.30;1.70;;;8.00;99.90;;;;;;5031314;28;20117;-85
2024/03/23 08:34:49;;;;;;;10.43;2.20;;;8.00;99.90;;;;;;5031652;28;20466;-85
2024/03/23 08:37:15;;;;;;;17.02;2.50;;;8.00;99.90;;;;;;5031508;28;20112;-85
2024/03/23 08:39:43;;;;;;;18.95;4.50;;;8.00;99.90;;;;;;5027377;28;20034;-85
2024/03/23 08:42:08;;;;;;;10.50;2.15;;;8.00;99.90;;;;;;5021877;28;20080;-84
2024/03/23 08:44:34;;;;;;;11.15;2.95;;;8.00;99.90;;;;;;5031249;28;20167;-85
2024/03/23 08:46:59;;;;;;;14.02;3.08;;;8.00;99.90;;;;;;5031105;28;20032;-85
2024/03/23 08:49:25;;;;;;;9.68;2.00;;;8.00;99.90;;;;;;5031632;28;20045;-85
2024/03/23 08:51:51;;;;;;;11.77;2.67;;;8.00;99.90;;;;;;5033504;28;20025;-85
2024/03/23 08:54:16;;;;;;;8.18;2.08;;;8.00;99.90;;;;;;5033040;28;20116;-86
2024/03/23 08:56:42;;;;;;;16.35;2.60;;;8.00;99.90;;;;;;5031543;28;20076;-85
2024/03/23 08:59:08;;;;;;;11.18;2.75;;;8.00;99.90;;;;;;5032484;28;20036;-86
2024/03/23 09:01:33;;;;;;;14.35;2.50;;;8.10;99.90;;;;;;5032585;28;20029;-85
2024/03/23 09:03:59;;;;;;;15.35;3.35;;;8.10;99.90;;;;;;5026644;28;20037;-86
2024/03/23 09:06:24;;;;;;;19.00;2.78;;;8.20;99.90;;;;;;5018927;28;20022;-86
2024/03/23 09:08:50;;;;;;;11.80;2.72;;;8.30;99.90;;;;;;5024279;28;20052;-85
2024/03/23 09:11:15;;;;;;;20.10;3.40;;;8.30;99.90;;;;;;5015192;28;20018;-84
2024/03/23 09:13:44;;;;;;;8.82;2.35;;;8.30;99.90;;;;;;5023991;28;20094;-84
2024/03/23 09:16:09;;;;;;;10.07;2.42;;;8.40;99.90;;;;;;5025361;28;20025;-85
2024/03/23 09:18:36;;;;;;;6.50;1.70;;;8.20;99.90;;;;;;5031271;28;20116;-84
2024/03/23 09:21:12;;;;;;;8.10;2.20;;;8.00;99.90;;;;;;5030713;28;20080;-84
2024/03/23 09:23:37;;;;;;;17.92;2.72;;;8.00;99.90;;;;;;5024121;28;20041;-83
2024/03/23 09:26:03;;;;;;;8.43;2.70;;;7.90;99.90;;;;;;5031332;28;20370;-84
2024/03/23 09:28:30;;;;;;;11.02;2.13;;;7.90;99.90;;;;;;5031138;28;20033;-85
2024/03/23 09:31:01;;;;;;;19.40;3.50;;;7.90;99.90;;;;;;5024541;28;20120;-85
2024/03/23 09:33:29;;;;;;;24.38;3.25;;;7.90;99.90;;;;;;5029883;28;20053;-89
2024/03/23 09:35:55;;;;;;;19.88;3.03;;;8.00;99.90;;;;;;5032688;28;20021;-83
2024/03/23 09:38:20;;;;;;;14.48;2.78;;;8.00;99.90;;;;;;5035447;28;20087;-85
2024/03/23 09:40:51;;;;;;;9.95;2.72;;;8.00;99.90;;;;;;5030533;28;20021;-85
2024/03/23 09:43:16;;;;;;;11.73;1.88;;;8.10;99.90;;;;;;5028846;28;20096;-84
2024/03/23 09:45:45;;;;;;;13.65;2.40;;;8.20;99.90;;;;;;5022649;28;20029;-84
2024/03/23 09:48:11;;;;;;;10.88;2.58;;;8.30;99.90;;;;;;5034551;28;20022;-85
2024/03/23 09:50:40;;;;;;;14.70;2.50;;;8.40;99.90;;;;;;5034228;28;20488;-86
2024/03/23 09:53:07;;;;;;;21.13;2.53;;;8.50;99.90;;;;;;5042574;28;20048;-87
2024/03/23 09:55:33;;;;;;;10.13;2.45;;;8.70;99.90;;;;;;5023511;28;20029;-86
2024/03/23 09:57:59;;;;;;;15.73;2.40;;;8.70;99.90;;;;;;5014564;28;20521;-85
2024/03/23 10:00:25;;;;;;;12.10;2.00;;;8.70;99.90;;;;;;5014955;28;20397;-90
2024/03/23 10:02:51;;;;;;;9.25;2.47;;;8.70;99.90;;;;;;5015780;28;20029;-90
2024/03/23 10:05:23;;;;;;;12.85;2.22;;;8.60;99.90;;;;;;5021456;28;20033;-89
2024/03/23 10:07:50;;;;;;;14.57;2.40;;;8.70;99.90;;;;;;5021264;28;20037;-88
2024/03/23 10:10:16;;;;;;;15.52;1.85;;;8.80;99.90;;;;;;5038361;28;20080;-92
2024/03/23 10:12:51;;;;;;;8.00;2.42;;;8.70;99.90;;;;;;5035803;28;20025;-90
2024/03/23 10:15:22;;;;;;;13.00;2.97;;;8.70;99.90;;;;;;5035747;28;20057;-90
2024/03/23 10:17:48;;;;;;;11.93;2.65;;;8.60;99.90;;;;;;5035797;28;20477;-90
2024/03/23 10:20:18;;;;;;;10.10;2.15;;;8.60;99.90;;;;;;5023496;28;20079;-87
2024/03/23 10:22:44;;;;;;;;;;;8.60;99.90;;;;;;5016613;28;20041;-86
2024/03/23 10:25:10;;;;;;;13.57;2.28;;;8.70;99.90;;;;;;5036179;28;20369;-87
2024/03/23 10:27:36;;;;;;;10.75;2.45;;;8.70;99.90;;;;;;5030163;28;20076;-87
2024/03/23 10:30:09;;;;;;;9.68;1.90;;;8.50;99.90;;;;;;5027438;28;20604;-88
2024/03/23 10:32:35;;;;;;;16.38;2.47;;;8.40;99.90;;;;;;5029374;28;20036;-87
2024/03/23 10:35:21;;;;;;;12.20;2.08;;;8.30;99.90;;;;;;5027017;28;20034;-83
2024/03/23 10:37:47;;;;;;;9.15;2.63;;;8.30;99.90;;;;;;5026152;28;20014;-85
2024/03/23 10:40:13;;;;;;;9.32;3.10;;;8.30;99.90;;;;;;5018654;28;20052;-84
2024/03/23 10:42:39;;;;;;;12.35;2.78;;;8.40;99.90;;;;;;5026289;28;20113;-84
2024/03/23 10:45:06;;;;;;;12.20;2.85;;;8.40;99.90;;;;;;5016950;28;20032;-85
2024/03/23 10:47:32;;;;;;;5.45;1.67;;;8.50;99.90;;;;;;5022587;28;20366;-85
2024/03/23 10:49:57;;;;;;;11.75;1.75;;;8.40;99.90;;;;;;5024490;28;20045;-86
2024/03/23 10:52:23;;;;;;;9.80;2.25;;;8.40;99.90;;;;;;5025779;28;20495;-87
2024/03/23 10:54:51;;;;;;;10.27;2.25;;;8.40;99.90;;;;;;5023839;28;20078;-89
2024/03/23 10:57:29;;;;;;;9.27;2.22;;;8.40;99.90;;;;;;5020649;28;20037;-85
2024/03/23 10:59:56;;;;;;;13.50;2.88;;;8.40;99.90;;;;;;5024574;28;20057;-88
2024/03/23 11:02:22;;;;;;;10.30;2.58;;;8.50;99.90;;;;;;5026159;28;20113;-85
2024/03/23 11:04:48;;;;;;;12.52;2.38;;;8.50;99.90;;;;;;5017065;28;20499;-88
2024/03/23 11:07:28;;;;;;;10.20;1.73;;;8.60;99.90;;;;;;5025366;28;20168;-90
2024/03/23 11:09:54;;;;;;;8.73;2.30;;;8.70;99.90;;;;;;5018204;28;20072;-89
2024/03/23 11:12:23;;;;;;;13.57;3.03;;;8.70;99.90;;;;;;5024497;28;20025;-89
2024/03/23 11:14:55;;;;;;;11.73;2.13;;;8.80;99.90;;;;;;5019323;28;20053;-85
2024/03/23 11:17:21;;;;;;;18.05;2.17;;;8.70;99.90;;;;;;5013643;28;20168;-84
2024/03/23 11:19:59;;;;;;;9.02;2.55;;;8.70;99.90;;;;;;5022268;28;20112;-84
2024/03/23 11:22:37;;;;;;;8.45;1.90;;;8.60;99.90;;;;;;5022741;28;20066;-84
2024/03/23 11:25:23;;;;;;;12.75;2.10;;;8.60;99.90;;;;;;5023940;28;20036;-84
2024/03/23 11:27:57;;;;;;;7.03;1.90;;;8.50;99.90;;;;;;5016711;28;20113;-85
2024/03/23 11:30:28;;;;;;;8.60;1.70;;;8.50;99.90;;;;;;5017212;28;20069;-83
2024/03/23 11:32:56;;;;;;;12.88;2.78;;;8.50;99.90;;;;;;5018568;28;20120;-85
2024/03/23 11:35:25;;;;;;;12.68;2.55;;;8.60;99.90;;;;;;5023062;28;20026;-84
2024/03/23 11:38:08;;;;;;;12.50;2.33;;;8.60;99.90;;;;;;5015231;28;20125;-84
2024/03/23 11:40:36;;;;;;;13.35;2.40;;;8.60;99.90;;;;;;5022073;28;20112;-85
2024/03/23 11:43:03;;;;;;;13.93;3.13;;;8.60;99.90;;;;;;5018714;28;20052;-84
2024/03/23 11:45:33;;;;;;;8.55;1.75;;;8.60;99.90;;;;;;5015629;28;20079;-85
2024/03/23 11:48:09;;;;;;;9.77;2.47;;;8.60;99.90;;;;;;5017868;28;20109;-86
2024/03/23 11:50:40;;;;;;;6.50;2.10;;;8.60;99.90;;;;;;5021862;28;20049;-89
2024/03/23 11:53:11;;;;;;;8.02;2.28;;;8.70;99.90;;;;;;5021374;28;20037;-87
2024/03/23 11:55:47;;;;;;;9.20;2.05;;;8.70;99.90;;;;;;5017733;28;20084;-84
2024/03/23 11:58:13;;;;;;;10.80;2.58;;;8.70;99.90;;;;;;5028139;28;20433;-85
2024/03/23 12:00:39;;;;;;;6.53;1.95;;;8.70;99.90;;;;;;5030700;28;20481;-84
2024/03/23 12:03:05;;;;;;;14.27;2.58;;;8.80;99.90;;;;;;5027079;28;20370;-84
2024/03/23 12:05:34;;;;;;;11.85;2.67;;;8.90;99.90;;;;;;5014011;28;20029;-84
2024/03/23 12:08:17;;;;;;;15.85;2.72;;;8.90;99.90;;;;;;5029129;28;20022;-84
2024/03/23 12:10:48;;;;;;;15.10;1.63;;;9.00;99.90;;;;;;5024403;28;20792;-84
2024/03/23 12:13:18;;;;;;;10.43;1.90;;;9.10;99.90;;;;;;5031328;28;20040;-85
2024/03/23 12:15:45;;;;;;;8.67;1.77;;;9.10;99.90;;;;;;5027530;28;20074;-84
2024/03/23 12:18:11;;;;;;;24.58;2.78;;;9.10;99.90;;;;;;5022729;28;20109;-88
2024/03/23 12:20:40;;;;;;;5.32;1.88;;;9.20;99.90;;;;;;5031431;28;20033;-85
2024/03/23 12:23:12;;;;;;;10.48;2.17;;;9.20;99.90;;;;;;5015243;28;20429;-85
2024/03/23 12:25:39;;;;;;;11.75;2.15;;;9.20;99.90;;;;;;5023118;28;20091;-83
2024/03/23 12:28:06;;;;;;;12.02;1.98;;;9.20;99.90;;;;;;5032256;28;20025;-84
2024/03/23 12:30:34;;;;;;;15.30;2.40;;;9.20;99.90;;;;;;5012583;28;20145;-84
2024/03/23 12:33:00;;;;;;;10.35;2.22;;;9.20;99.90;;;;;;5010700;28;20026;-84
2024/03/23 12:35:25;;;;;;;11.88;2.17;;;9.20;99.90;;;;;;5026096;28;20049;-85
2024/03/23 12:37:51;;;;;;;13.05;1.98;;;9.10;99.90;;;;;;5030617;28;20039;-83
2024/03/23 12:40:16;;;;;;;7.88;1.88;;;9.10;99.90;;;;;;5024568;28;20079;-84
2024/03/23 12:42:42;;;;;;;8.02;1.75;;;9.20;99.90;;;;;;5013935;28;20049;-84
2024/03/23 12:45:08;;;;;;;12.82;2.08;;;9.30;99.90;;;;;;5030578;28;20045;-84